createdAt,value
2019-06-27T00:05:09.020Z,97586.05
2019-06-27T00:11:05.523Z,97583.38
2019-06-27T00:16:16.737Z,97581.47
2019-06-27T00:22:00.577Z,97587.13
2019-06-27T00:27:57.584Z,97587.63
2019-06-27T00:39:18.341Z,97590.62
2019-06-27T00:45:04.133Z,97585.53
2019-06-27T00:50:50.223Z,97587.67
2019-06-27T00:56:04.548Z,97576.19
2019-06-27T01:01:00.582Z,97585.27
2019-06-27T01:06:13.205Z,97579.16
2019-06-27T01:11:57.461Z,97582.11
2019-06-27T01:17:18.735Z,97575.35
2019-06-27T01:28:48.809Z,97578.31
2019-06-27T01:33:43.481Z,97580.61
2019-06-27T01:39:37.300Z,97588.12
2019-06-27T01:44:38.504Z,97582.77
2019-06-27T01:50:32.280Z,97574.02
2019-06-27T02:02:47.971Z,97572.70
2019-06-27T02:08:13.297Z,97567.04
2019-06-27T02:13:42.543Z,97571.84
2019-06-27T02:19:38.009Z,97580.73
2019-06-27T02:25:11.294Z,97577.55
2019-06-27T02:32:03.247Z,97582.88
2019-06-27T02:37:21.175Z,97581.54
2019-06-27T02:43:34.131Z,97577.51
2019-06-27T02:48:49.131Z,97576.05
2019-06-27T02:53:40.673Z,97579.91
2019-06-27T02:58:59.480Z,97585.73
2019-06-27T03:03:54.219Z,97590.27
2019-06-27T03:08:50.221Z,97593.52
2019-06-27T03:13:46.170Z,97604.95
2019-06-27T03:18:42.326Z,97613.03
2019-06-27T03:23:38.415Z,97614.70
2019-06-27T03:28:51.048Z,97614.67
2019-06-27T03:34:55.919Z,97612.05
2019-06-27T03:45:23.338Z,97622.30
2019-06-27T03:50:39.655Z,97625.27
2019-06-27T03:55:47.182Z,97632.23
2019-06-27T04:00:42.775Z,97631.11
2019-06-27T04:06:08.005Z,97629.75
2019-06-27T04:11:08.655Z,97639.16
2019-06-27T04:16:32.301Z,97642.44
2019-06-27T04:21:50.908Z,97645.08
2019-06-27T04:26:54.515Z,97643.39
2019-06-27T04:31:51.923Z,97647.52
2019-06-27T04:37:07.932Z,97656.48
2019-06-27T04:42:06.976Z,97656.17
2019-06-27T04:47:14.437Z,97656.35
2019-06-27T04:52:13.642Z,97665.85
2019-06-27T04:57:23.102Z,97664.43
2019-06-27T05:02:30.590Z,97666.63
2019-06-27T05:08:20.314Z,97657.86
2019-06-27T05:27:11.258Z,97654.77
2019-06-27T05:58:04.411Z,97647.05
2019-06-27T06:39:39.888Z,97670.95
2019-06-27T06:44:35.679Z,97670.64
2019-06-27T06:49:31.393Z,97667.58
2019-06-27T06:54:27.134Z,97657.06
2019-06-27T06:59:23.069Z,97659.70
2019-06-27T07:04:18.895Z,97662.25
2019-06-27T07:09:14.631Z,97666.34
2019-06-27T07:14:10.462Z,97668.01
2019-06-27T07:19:06.279Z,97665.02
2019-06-27T07:24:02.017Z,97666.38
2019-06-27T07:28:57.925Z,97668.08
2019-06-27T07:33:53.706Z,97670.34
2019-06-27T07:40:01.285Z,97664.64
2019-06-27T07:45:59.729Z,97663.81
2019-06-27T07:57:03.144Z,97654.98
2019-06-27T08:03:01.670Z,97661.08
2019-06-27T08:15:01.600Z,97647.86
2019-06-27T08:20:59.735Z,97647.22
2019-06-27T08:27:01.100Z,97644.81
2019-06-27T08:33:00.345Z,97645.44
2019-06-27T08:45:03.362Z,97639.50
2019-06-27T09:14:59.415Z,97625.07
2019-06-27T09:26:02.767Z,97624.73
2019-06-27T09:36:53.661Z,97627.03
2019-06-27T09:41:49.400Z,97631.41
2019-06-27T09:46:45.298Z,97619.53
2019-06-27T09:51:43.401Z,97619.73
2019-06-27T09:56:39.192Z,97622.53
2019-06-27T10:01:34.995Z,97620.45
2019-06-27T10:06:31.952Z,97616.92
2019-06-27T10:11:27.639Z,97620.67
2019-06-27T10:16:23.432Z,97619.62
2019-06-27T10:21:19.266Z,97611.97
2019-06-27T10:26:15.035Z,97610.63
2019-06-27T10:31:10.837Z,97609.80
2019-06-27T10:36:06.657Z,97606.78
2019-06-27T10:41:02.558Z,97606.41
2019-06-27T10:45:58.314Z,97598.47
2019-06-27T10:50:54.863Z,97594.73
2019-06-27T10:55:50.777Z,97591.66
2019-06-27T11:00:46.619Z,97590.38
2019-06-27T11:06:14.779Z,97581.52
2019-06-27T11:24:31.954Z,97575.98
2019-06-27T11:29:43.945Z,97563.20
2019-06-27T11:34:59.742Z,97548.70
2019-06-27T11:40:06.122Z,97551.70
2019-06-27T11:45:05.120Z,97547.50
2019-06-27T12:17:16.241Z,97527.89
2019-06-27T13:00:01.259Z,97482.69
2019-06-27T13:12:02.217Z,97486.59
2019-06-27T13:17:10.336Z,97474.86
2019-06-27T13:47:04.668Z,97454.31
2019-06-27T13:58:03.665Z,97452.16
2019-06-27T14:04:19.462Z,97447.54
2019-06-27T14:10:06.616Z,97437.81
2019-06-27T14:15:59.467Z,97438.50
2019-06-27T14:21:12.520Z,97433.23
2019-06-27T14:26:17.226Z,97428.38
2019-06-27T14:31:18.201Z,97425.06
2019-06-27T14:36:21.430Z,97423.02
2019-06-27T14:47:05.600Z,97412.38
2019-06-27T14:52:57.535Z,97412.60
2019-06-27T14:58:36.330Z,97408.03
2019-06-27T15:04:06.302Z,97400.76
2019-06-27T15:09:31.350Z,97389.48
2019-06-27T15:14:45.859Z,97384.64
2019-06-27T15:19:59.259Z,97390.35
2019-06-27T15:25:21.835Z,97387.55
2019-06-27T15:30:26.381Z,97385.17
2019-06-27T15:36:39.809Z,97378.97
2019-06-27T15:41:40.974Z,97388.29
2019-06-27T15:46:45.942Z,97377.56
2019-06-27T15:51:50.105Z,97370.42
2019-06-27T15:56:53.298Z,97367.64
2019-06-27T16:15:01.562Z,97368.17
2019-06-27T19:01:45.559Z,97387.50
2019-06-27T19:06:41.425Z,97399.53
2019-06-27T19:11:39.708Z,97406.02
2019-06-27T19:16:35.486Z,97410.30
2019-06-27T19:21:50.186Z,97424.64
2019-06-27T19:26:46.942Z,97428.16
2019-06-27T19:31:42.778Z,97440.91
2019-06-27T19:36:38.618Z,97436.01
2019-06-27T19:41:34.492Z,97442.66
2019-06-27T19:46:30.223Z,97451.48
2019-06-27T19:51:26.103Z,97461.77
2019-06-27T19:56:21.983Z,97464.91
2019-06-27T20:01:17.711Z,97464.84
2019-06-27T20:06:13.647Z,97476.38
2019-06-27T20:11:09.427Z,97478.92
2019-06-27T20:22:39.079Z,97489.16
2019-06-27T20:33:40.732Z,97494.96
2019-06-27T20:38:38.358Z,97499.22
2019-06-27T20:43:49.389Z,97505.16
2019-06-27T20:50:10.167Z,97512.36
2019-06-27T20:55:29.826Z,97520.91
2019-06-27T21:01:47.544Z,97526.52
2019-06-27T21:20:25.219Z,97547.05
2019-06-27T21:25:21.531Z,97551.47
2019-06-27T21:30:18.093Z,97552.03
2019-06-27T21:35:14.377Z,97558.14
2019-06-27T21:40:11.619Z,97562.05
2019-06-27T21:45:08.469Z,97566.08
2019-06-27T21:50:04.784Z,97566.52
2019-06-27T21:55:00.666Z,97567.34
2019-06-27T22:00:01.779Z,97566.18
2019-06-27T22:04:57.793Z,97567.05
2019-06-27T22:09:53.721Z,97569.37
2019-06-27T22:14:50.371Z,97563.19
2019-06-27T22:19:47.117Z,97559.75
2019-06-27T22:24:43.045Z,97553.30
2019-06-27T22:29:38.815Z,97556.61
2019-06-27T22:34:35.654Z,97557.34
2019-06-27T22:39:49.745Z,97554.80
2019-06-27T22:45:03.239Z,97564.42
2019-06-27T22:49:59.698Z,97562.23
2019-06-27T22:54:57.352Z,97560.27
2019-06-27T22:59:53.069Z,97556.41
2019-06-27T23:04:48.880Z,97556.22
2019-06-27T23:09:56.410Z,97560.48
2019-06-27T23:14:42.053Z,97558.83
2019-06-27T23:19:37.859Z,97556.05
2019-06-27T23:24:33.818Z,97556.22
2019-06-27T23:34:31.170Z,97565.55
2019-06-27T23:39:27.098Z,97564.36
2019-06-27T23:44:22.936Z,97565.66
2019-06-27T23:49:18.707Z,97557.23
2019-06-27T23:54:14.571Z,97564.05
2019-06-27T23:59:10.302Z,97562.55
